Time;durP1;ratioP1;P1;durP2;ratioP2;P2;SDS_P1;SDS_P2;PMS_P1;PMS_P2;Temp;Humidity;BMP_temperature;BMP_pressure;BME280_temperature;BME280_humidity;BME280_pressure;Samples;Min_cycle;Max_cycle;Signal;HPM_P1;HPM_P2
2023/04/08 00:01:34;;;;;;;2.45;0.80;;;6.50;98.50;;;;;;4749677;30;20405;-83
2023/04/08 00:04:01;;;;;;;2.70;1.02;;;6.50;98.50;;;;;;4755021;30;20059;-83
2023/04/08 00:06:30;;;;;;;3.90;1.60;;;6.50;98.60;;;;;;4755746;30;20069;-83
2023/04/08 00:09:00;;;;;;;2.95;1.30;;;6.50;98.60;;;;;;4740836;30;20054;-83
2023/04/08 00:11:27;;;;;;;3.10;1.23;;;6.40;98.50;;;;;;4755194;30;20472;-83
2023/04/08 00:13:54;;;;;;;3.75;1.40;;;6.40;98.50;;;;;;4740583;30;20523;-83
2023/04/08 00:16:21;;;;;;;2.55;1.00;;;6.30;98.60;;;;;;4740869;30;20043;-82
2023/04/08 00:18:48;;;;;;;2.50;1.05;;;6.30;98.60;;;;;;4740727;30;20047;-83
2023/04/08 00:21:16;;;;;;;3.28;1.33;;;6.30;98.60;;;;;;4755219;30;20101;-82
2023/04/08 00:23:44;;;;;;;2.70;0.95;;;6.30;98.60;;;;;;4755009;30;20051;-82
2023/04/08 00:26:11;;;;;;;2.65;1.10;;;6.20;98.60;;;;;;4755491;30;20056;-83
2023/04/08 00:28:40;;;;;;;2.28;1.02;;;6.20;98.60;;;;;;4740554;30;20502;-83
2023/04/08 00:31:07;;;;;;;3.15;1.15;;;6.20;98.60;;;;;;4740454;30;20060;-82
2023/04/08 00:33:34;;;;;;;3.22;0.98;;;6.20;98.70;;;;;;4740122;30;20047;-83
2023/04/08 00:36:02;;;;;;;2.33;0.85;;;6.20;98.70;;;;;;4740027;30;20061;-82
2023/04/08 00:38:31;;;;;;;2.50;0.90;;;6.20;98.70;;;;;;4740405;30;20048;-83
2023/04/08 00:40:58;;;;;;;1.95;0.70;;;6.20;98.70;;;;;;4754615;30;20051;-83
2023/04/08 00:43:25;;;;;;;2.80;0.90;;;6.10;98.70;;;;;;4754536;30;20058;-83
2023/04/08 00:45:58;;;;;;;2.25;0.80;;;6.10;98.70;;;;;;4769490;30;20060;-83
2023/04/08 00:48:26;;;;;;;2.10;0.80;;;6.10;98.70;;;;;;4740097;30;20048;-83
2023/04/08 00:50:54;;;;;;;2.72;1.15;;;6.00;98.70;;;;;;4740218;30;20059;-83
2023/04/08 00:53:21;;;;;;;2.13;0.90;;;6.10;98.70;;;;;;4754352;30;20068;-82
2023/04/08 00:55:50;;;;;;;1.98;0.80;;;6.00;98.70;;;;;;4740611;30;20048;-83
2023/04/08 00:58:17;;;;;;;1.83;0.70;;;6.00;98.70;;;;;;4740177;30;20055;-82
2023/04/08 01:01:02;;;;;;;2.58;0.77;;;5.90;98.70;;;;;;4739904;30;20058;-83
2023/04/08 01:03:41;;;;;;;1.63;0.50;;;5.90;98.70;;;;;;4754016;30;20505;-82
2023/04/08 01:06:46;;;;;;;2.67;1.08;;;5.90;98.80;;;;;;4768785;30;20056;-83
2023/04/08 01:09:19;;;;;;;2.05;0.60;;;5.90;98.70;;;;;;4754069;30;20098;-83
2023/04/08 01:11:49;;;;;;;1.65;0.77;;;5.80;98.70;;;;;;4739378;30;20062;-83
2023/04/08 01:14:20;;;;;;;1.83;0.68;;;5.70;98.70;;;;;;4754144;30;20048;-83
2023/04/08 01:16:49;;;;;;;1.70;0.55;;;5.70;98.70;;;;;;4754197;30;20134;-83
2023/04/08 01:19:25;;;;;;;2.60;1.02;;;5.70;98.70;;;;;;4739496;30;20498;-83
2023/04/08 01:21:54;;;;;;;2.05;0.70;;;5.70;98.70;;;;;;4754054;30;20051;-83
2023/04/08 01:24:35;;;;;;;2.35;0.80;;;5.70;98.80;;;;;;4754064;30;20085;-82
2023/04/08 01:27:03;;;;;;;3.42;1.13;;;5.70;98.70;;;;;;4769032;30;20043;-83
2023/04/08 01:29:32;;;;;;;2.55;0.85;;;5.70;98.70;;;;;;4737536;30;20147;-82
2023/04/08 01:32:01;;;;;;;2.63;0.95;;;5.70;98.70;;;;;;4740555;30;20051;-83
2023/04/08 01:34:29;;;;;;;3.20;1.13;;;5.70;99.00;;;;;;4754646;30;20774;-83
2023/04/08 01:36:57;;;;;;;3.47;1.23;;;5.70;98.70;;;;;;4739494;30;20054;-82
2023/04/08 01:39:26;;;;;;;3.22;1.15;;;5.70;98.70;;;;;;4739225;30;20052;-83
2023/04/08 01:41:57;;;;;;;2.83;1.08;;;5.70;98.70;;;;;;4768923;30;20059;-82
2023/04/08 01:44:28;;;;;;;2.60;1.02;;;5.70;98.70;;;;;;4738173;30;20044;-82
2023/04/08 01:46:55;;;;;;;2.55;1.00;;;5.70;98.70;;;;;;4753818;30;20126;-82
2023/04/08 01:49:24;;;;;;;2.78;1.30;;;5.70;98.70;;;;;;4753986;30;20151;-82
2023/04/08 01:51:54;;;;;;;2.38;0.90;;;5.70;98.70;;;;;;4768961;30;20428;-81
2023/04/08 01:54:21;;;;;;;2.25;1.00;;;5.70;98.70;;;;;;4753714;30;20143;-83
2023/04/08 01:56:51;;;;;;;2.45;0.80;;;5.60;98.70;;;;;;4742407;30;20139;-83
2023/04/08 01:59:20;;;;;;;2.97;1.10;;;5.60;98.70;;;;;;4757693;30;20544;-83
2023/04/08 02:01:49;;;;;;;2.95;0.90;;;5.50;98.70;;;;;;4740663;30;20139;-82
2023/04/08 02:04:16;;;;;;;3.05;1.10;;;5.50;98.70;;;;;;4744212;30;20527;-83
2023/04/08 02:06:44;;;;;;;2.55;0.98;;;5.50;98.80;;;;;;4742715;30;20075;-82
2023/04/08 02:09:12;;;;;;;2.17;0.90;;;5.40;98.80;;;;;;4757681;30;20074;-89
2023/04/08 02:11:39;;;;;;;2.40;0.90;;;5.40;98.80;;;;;;4743443;30;20074;-90
2023/04/08 02:14:06;;;;;;;2.15;1.10;;;5.40;98.80;;;;;;4743813;30;20143;-90
2023/04/08 02:16:47;;;;;;;2.63;1.08;;;5.40;98.80;;;;;;4757931;30;20067;-90
2023/04/08 02:19:35;;;;;;;2.67;1.00;;;5.30;98.80;;;;;;4748219;30;20473;-90
2023/04/08 02:22:06;;;;;;;3.10;1.08;;;5.30;98.80;;;;;;4746451;30;20060;-90
2023/04/08 02:24:38;;;;;;;2.58;0.82;;;5.30;98.80;;;;;;4758441;30;20105;-90
2023/04/08 02:27:08;;;;;;;1.70;0.65;;;5.30;98.80;;;;;;4751057;30;20102;-90
2023/04/08 02:29:40;;;;;;;2.45;0.93;;;5.30;98.80;;;;;;4743666;30;20076;-90
2023/04/08 02:32:13;;;;;;;2.17;0.80;;;5.20;98.80;;;;;;4746414;30;20056;-90
2023/04/08 02:34:42;;;;;;;2.83;1.08;;;5.20;98.80;;;;;;4772613;30;20099;-90
2023/04/08 02:37:12;;;;;;;2.95;1.05;;;5.10;98.80;;;;;;4743177;30;20135;-90
2023/04/08 02:39:40;;;;;;;3.17;1.50;;;5.10;98.80;;;;;;4743464;30;20048;-90
2023/04/08 02:42:09;;;;;;;2.38;0.90;;;5.10;98.90;;;;;;4726191;30;20048;-90
2023/04/08 02:44:37;;;;;;;2.13;1.00;;;5.10;98.90;;;;;;4729864;30;20047;-90
2023/04/08 02:47:05;;;;;;;3.25;1.38;;;5.10;98.80;;;;;;4745463;30;20103;-91
2023/04/08 02:49:34;;;;;;;3.30;1.50;;;5.00;98.80;;;;;;4742254;30;20049;-90
2023/04/08 02:52:01;;;;;;;2.72;1.35;;;5.00;98.80;;;;;;4737966;30;20052;-90
2023/04/08 02:54:28;;;;;;;2.90;1.33;;;5.00;98.80;;;;;;4743200;30;20505;-90
2023/04/08 02:56:55;;;;;;;3.33;1.33;;;5.00;98.90;;;;;;4757909;30;20043;-90
2023/04/08 02:59:22;;;;;;;3.10;1.23;;;4.90;98.80;;;;;;4757675;30;20052;-89
2023/04/08 03:01:50;;;;;;;5.03;1.83;;;4.90;98.80;;;;;;4738944;30;20499;-83
2023/04/08 03:04:17;;;;;;;3.03;1.80;;;4.90;98.90;;;;;;4743077;30;20113;-83
2023/04/08 03:06:44;;;;;;;2.92;1.38;;;4.90;98.90;;;;;;4763363;30;20101;-83
2023/04/08 03:09:11;;;;;;;2.50;1.10;;;4.80;98.90;;;;;;4756667;30;20055;-83
2023/04/08 03:11:38;;;;;;;3.15;1.35;;;4.80;98.90;;;;;;4772434;30;20048;-82
2023/04/08 03:14:05;;;;;;;3.40;1.40;;;4.80;98.90;;;;;;4746268;30;20062;-83
2023/04/08 03:16:32;;;;;;;3.75;1.95;;;4.80;98.90;;;;;;4748390;30;20044;-83
2023/04/08 03:18:59;;;;;;;3.33;1.65;;;4.80;98.90;;;;;;4756061;30;20047;-83
2023/04/08 03:21:26;;;;;;;4.05;1.95;;;4.70;98.90;;;;;;4755951;30;20079;-83
2023/04/08 03:23:54;;;;;;;3.65;1.73;;;4.70;98.90;;;;;;4741514;30;20067;-83
2023/04/08 03:26:21;;;;;;;3.22;1.67;;;4.70;98.90;;;;;;4741461;30;20077;-83
2023/04/08 03:28:48;;;;;;;3.53;2.00;;;4.70;98.90;;;;;;4755696;30;20055;-83
2023/04/08 03:31:16;;;;;;;3.95;1.70;;;4.60;98.90;;;;;;4741462;30;20051;-82
2023/04/08 03:33:43;;;;;;;3.45;1.73;;;4.60;98.90;;;;;;4741388;30;20047;-83
2023/04/08 03:36:11;;;;;;;3.03;1.63;;;4.50;98.90;;;;;;4741387;30;20055;-82
2023/04/08 03:38:38;;;;;;;3.97;1.80;;;4.50;98.90;;;;;;4741273;30;20047;-83
2023/04/08 03:41:07;;;;;;;3.67;1.83;;;4.50;99.20;;;;;;4740869;30;20546;-83
2023/04/08 03:43:35;;;;;;;3.42;1.60;;;4.50;99.00;;;;;;4741843;30;20530;-83
2023/04/08 03:46:04;;;;;;;4.05;1.85;;;4.40;98.90;;;;;;4741290;30;20055;-83
2023/04/08 03:48:31;;;;;;;3.22;1.80;;;4.40;98.90;;;;;;4739405;30;20066;-83
2023/04/08 03:50:58;;;;;;;3.40;1.60;;;4.40;98.90;;;;;;4740926;30;20051;-83
2023/04/08 03:53:28;;;;;;;4.05;1.95;;;4.40;99.00;;;;;;4741332;30;20562;-83
2023/04/08 03:55:56;;;;;;;4.25;1.90;;;4.30;98.90;;;;;;4756292;30;20048;-83
2023/04/08 03:58:26;;;;;;;4.13;1.90;;;4.30;98.90;;;;;;4741498;30;20050;-83
2023/04/08 04:00:53;;;;;;;3.35;1.65;;;4.30;98.90;;;;;;4741014;30;20470;-83
2023/04/08 04:03:20;;;;;;;4.43;1.95;;;4.30;99.20;;;;;;4737651;30;20060;-83
2023/04/08 04:05:47;;;;;;;4.43;2.40;;;4.20;98.90;;;;;;4738248;30;20059;-83
2023/04/08 04:08:15;;;;;;;3.80;1.65;;;4.20;99.00;;;;;;4754452;30;20066;-83
2023/04/08 04:10:42;;;;;;;4.82;2.85;;;4.20;99.00;;;;;;4738953;30;20092;-82
2023/04/08 04:13:11;;;;;;;5.63;2.55;;;4.20;99.00;;;;;;4738069;30;20048;-83
2023/04/08 04:15:41;;;;;;;5.07;2.42;;;4.10;99.00;;;;;;4755444;30;20143;-83
2023/04/08 04:18:10;;;;;;;4.57;2.33;;;4.10;99.00;;;;;;4740059;30;20048;-83
2023/04/08 04:20:41;;;;;;;4.40;2.40;;;4.10;98.90;;;;;;4755116;30;20047;-83
2023/04/08 04:23:09;;;;;;;4.80;2.25;;;4.10;98.90;;;;;;4755000;30;20060;-83
2023/04/08 04:25:40;;;;;;;3.72;1.98;;;4.10;98.90;;;;;;4744190;30;20056;-83
2023/04/08 04:28:08;;;;;;;3.95;2.33;;;4.10;98.90;;;;;;4744704;30;20463;-83
2023/04/08 04:30:39;;;;;;;4.35;2.38;;;4.10;98.90;;;;;;4752497;30;20048;-83
2023/04/08 04:33:07;;;;;;;4.22;2.20;;;4.10;98.90;;;;;;4749470;30;20051;-83
2023/04/08 04:35:34;;;;;;;4.28;2.38;;;4.10;98.90;;;;;;4754883;30;20051;-83
2023/04/08 04:38:01;;;;;;;5.25;2.85;;;4.00;98.90;;;;;;4754768;30;20051;-82
2023/04/08 04:40:28;;;;;;;5.38;3.10;;;4.00;98.90;;;;;;4754656;30;20055;-83
2023/04/08 04:42:55;;;;;;;5.18;3.08;;;4.00;98.90;;;;;;4740250;30;20058;-83
2023/04/08 04:45:22;;;;;;;5.55;3.28;;;4.00;99.10;;;;;;4739770;30;20084;-83
2023/04/08 04:47:49;;;;;;;6.50;3.65;;;4.00;98.90;;;;;;4740098;30;20079;-83
2023/04/08 04:50:16;;;;;;;6.07;3.45;;;4.00;98.90;;;;;;4753905;30;20051;-83
2023/04/08 04:52:43;;;;;;;5.50;3.50;;;4.10;98.80;;;;;;4753623;30;20052;-84
2023/04/08 04:55:12;;;;;;;5.47;3.00;;;4.10;98.80;;;;;;4752778;30;20536;-83
2023/04/08 04:57:39;;;;;;;9.68;3.97;;;4.10;98.80;;;;;;4731980;30;20052;-84
2023/04/08 05:00:07;;;;;;;5.75;3.63;;;4.10;98.80;;;;;;4763417;30;20052;-83
2023/04/08 05:02:34;;;;;;;6.60;3.42;;;4.00;98.70;;;;;;4727670;30;20052;-83
2023/04/08 05:05:02;;;;;;;5.15;2.80;;;4.00;98.70;;;;;;4744001;30;20056;-83
2023/04/08 05:07:29;;;;;;;5.03;2.83;;;4.00;98.70;;;;;;4746914;30;20082;-83
2023/04/08 05:09:56;;;;;;;7.50;3.63;;;4.00;98.70;;;;;;4740052;30;20085;-83
2023/04/08 05:12:26;;;;;;;5.20;2.83;;;4.00;98.70;;;;;;4737812;30;20047;-82
2023/04/08 05:14:56;;;;;;;7.03;4.45;;;4.00;98.70;;;;;;4740025;30;20139;-83
2023/04/08 05:17:23;;;;;;;6.28;3.47;;;4.00;98.70;;;;;;4765417;30;20048;-83
2023/04/08 05:19:52;;;;;;;5.45;2.92;;;4.00;98.70;;;;;;4748213;30;20044;-82
2023/04/08 05:22:19;;;;;;;5.20;3.30;;;4.00;98.70;;;;;;4768811;30;20456;-82
2023/04/08 05:24:46;;;;;;;4.70;3.00;;;4.00;98.70;;;;;;4758197;30;20147;-82
2023/04/08 05:27:13;;;;;;;5.60;3.20;;;4.00;98.70;;;;;;4754213;30;20055;-83
2023/04/08 05:29:40;;;;;;;5.30;3.08;;;4.00;98.70;;;;;;4739239;30;20055;-83
2023/04/08 05:32:07;;;;;;;5.00;2.85;;;4.00;98.70;;;;;;4736759;30;20071;-83
2023/04/08 05:34:34;;;;;;;5.15;2.80;;;4.00;98.60;;;;;;4724911;30;20048;-83
2023/04/08 05:37:01;;;;;;;5.75;3.30;;;4.00;98.60;;;;;;4752423;30;20052;-83
2023/04/08 05:39:28;;;;;;;6.10;3.40;;;4.10;98.60;;;;;;4762069;30;20404;-83
2023/04/08 05:41:55;;;;;;;6.22;3.17;;;4.10;98.60;;;;;;4727762;30;20569;-83
2023/04/08 05:44:22;;;;;;;4.72;2.95;;;4.10;98.50;;;;;;4739209;30;20494;-83
2023/04/08 05:46:49;;;;;;;5.28;3.15;;;4.10;98.50;;;;;;4738943;30;20498;-83
2023/04/08 05:49:17;;;;;;;5.65;2.67;;;4.20;98.50;;;;;;4739514;30;20054;-83
2023/04/08 05:51:44;;;;;;;4.93;2.92;;;4.20;98.50;;;;;;4738774;30;20113;-83
2023/04/08 05:54:11;;;;;;;4.88;2.60;;;4.30;98.40;;;;;;4753684;30;20056;-83
2023/04/08 05:56:38;;;;;;;3.85;2.35;;;4.30;98.40;;;;;;4752718;30;20119;-83
2023/04/08 05:59:05;;;;;;;4.95;2.45;;;4.30;98.30;;;;;;4739665;30;20465;-83
2023/04/08 06:01:32;;;;;;;5.40;2.78;;;4.40;98.30;;;;;;4739296;30;20146;-83
2023/04/08 06:03:59;;;;;;;5.55;3.42;;;4.40;98.20;;;;;;4739099;30;20056;-83
2023/04/08 06:06:26;;;;;;;5.07;3.30;;;4.50;98.20;;;;;;4754248;30;20051;-83
2023/04/08 06:08:53;;;;;;;5.03;2.95;;;4.60;98.10;;;;;;4753578;30;20502;-83
2023/04/08 06:11:20;;;;;;;5.82;3.10;;;4.70;98.10;;;;;;4738920;30;20505;-83
2023/04/08 06:13:47;;;;;;;5.22;3.00;;;4.70;98.00;;;;;;4739369;30;20054;-82
2023/04/08 06:16:16;;;;;;;4.97;2.53;;;4.80;97.90;;;;;;4737439;30;20048;-82
2023/04/08 06:18:46;;;;;;;5.15;2.83;;;4.90;97.90;;;;;;4739202;30;20043;-83
2023/04/08 06:21:15;;;;;;;4.50;2.95;;;5.00;97.80;;;;;;4739055;30;20044;-82
2023/04/08 06:23:42;;;;;;;4.85;2.80;;;5.10;97.80;;;;;;4739227;30;20079;-82
2023/04/08 06:26:10;;;;;;;4.32;2.10;;;5.20;97.70;;;;;;4753781;30;20075;-82
2023/04/08 06:28:36;;;;;;;4.60;2.70;;;5.20;97.60;;;;;;4739321;30;20043;-81
2023/04/08 06:31:03;;;;;;;4.20;2.22;;;5.30;97.50;;;;;;4718591;30;20150;-82
2023/04/08 06:33:30;;;;;;;5.10;2.90;;;5.40;97.40;;;;;;4739734;30;20052;-82
2023/04/08 06:36:02;;;;;;;4.47;2.70;;;5.50;97.40;;;;;;4735781;30;20498;-81
2023/04/08 06:38:30;;;;;;;6.35;2.95;;;5.60;97.30;;;;;;4753117;30;20051;-82
2023/04/08 06:41:05;;;;;;;5.65;3.00;;;5.60;97.20;;;;;;4746629;30;20060;-82
2023/04/08 06:43:33;;;;;;;4.43;2.55;;;5.70;97.10;;;;;;4738296;30;20238;-82
2023/04/08 06:46:00;;;;;;;4.32;2.70;;;5.80;97.30;;;;;;4740793;30;20044;-83
2023/04/08 06:48:29;;;;;;;5.40;2.95;;;5.80;97.00;;;;;;4741692;30;20047;-81
2023/04/08 06:50:57;;;;;;;4.38;2.55;;;5.90;96.90;;;;;;4750638;30;20109;-81
2023/04/08 06:53:25;;;;;;;3.80;2.25;;;6.00;96.90;;;;;;4756194;30;20113;-82
2023/04/08 06:55:52;;;;;;;6.57;3.08;;;6.00;96.80;;;;;;4738607;30;20522;-84
2023/04/08 06:58:19;;;;;;;4.88;3.13;;;6.10;96.80;;;;;;4753903;30;20119;-82
2023/04/08 07:00:46;;;;;;;3.67;2.03;;;6.20;96.70;;;;;;4738757;30;20056;-82
2023/04/08 07:03:13;;;;;;;4.50;2.15;;;6.20;96.70;;;;;;4750902;30;20056;-82
2023/04/08 07:05:41;;;;;;;3.63;2.22;;;6.30;96.90;;;;;;4741726;30;20063;-82
2023/04/08 07:08:08;;;;;;;3.33;2.05;;;6.40;96.50;;;;;;4738190;30;20573;-82
2023/04/08 07:10:37;;;;;;;4.40;1.70;;;6.50;96.50;;;;;;4771281;30;20083;-82
2023/04/08 07:13:04;;;;;;;4.13;1.90;;;6.60;96.40;;;;;;4741315;30;20134;-82
2023/04/08 07:15:33;;;;;;;5.00;2.42;;;6.70;96.40;;;;;;4743153;30;20040;-82
2023/04/08 07:18:00;;;;;;;3.65;2.00;;;6.80;96.30;;;;;;4745729;30;20387;-82
2023/04/08 07:20:27;;;;;;;3.45;2.10;;;6.80;96.20;;;;;;4741532;30;20412;-83
2023/04/08 07:23:00;;;;;;;3.78;2.22;;;6.90;96.20;;;;;;4741678;30;20509;-82
2023/04/08 07:25:28;;;;;;;3.75;2.22;;;7.00;96.10;;;;;;4738865;30;20056;-82
2023/04/08 07:27:56;;;;;;;3.85;2.20;;;7.00;96.00;;;;;;4741621;30;20475;-82
2023/04/08 07:30:25;;;;;;;3.28;2.22;;;7.10;96.00;;;;;;4756417;30;20066;-82
2023/04/08 07:32:56;;;;;;;4.20;2.30;;;7.20;95.90;;;;;;4741742;30;20149;-82
2023/04/08 07:35:26;;;;;;;3.65;1.88;;;7.30;95.90;;;;;;4736941;30;20159;-82
2023/04/08 07:37:53;;;;;;;3.47;1.77;;;7.40;95.80;;;;;;4740312;30;20059;-82
2023/04/08 07:40:21;;;;;;;3.50;1.95;;;7.50;95.70;;;;;;4741136;30;20066;-82
2023/04/08 07:42:48;;;;;;;4.63;2.53;;;7.60;95.60;;;;;;4756055;30;20040;-83
2023/04/08 07:45:15;;;;;;;3.60;1.83;;;7.70;95.50;;;;;;4739599;30;20139;-82
2023/04/08 07:47:43;;;;;;;2.72;1.45;;;7.80;95.40;;;;;;4741773;30;20081;-82
2023/04/08 07:50:12;;;;;;;3.85;1.52;;;7.90;95.40;;;;;;4755732;30;20109;-82
2023/04/08 07:52:39;;;;;;;3.47;1.63;;;7.90;95.30;;;;;;4740210;30;20142;-82
2023/04/08 07:55:06;;;;;;;3.10;1.63;;;8.00;95.30;;;;;;4755457;30;20066;-82
2023/04/08 07:57:33;;;;;;;3.03;1.50;;;8.10;95.20;;;;;;4741190;30;20470;-82
2023/04/08 08:00:00;;;;;;;2.95;1.73;;;8.20;95.10;;;;;;4740904;30;20044;-82
2023/04/08 08:02:27;;;;;;;2.70;1.45;;;8.30;95.00;;;;;;4737675;30;20102;-82
2023/04/08 08:04:55;;;;;;;2.72;1.42;;;8.40;94.90;;;;;;4752877;30;20138;-82
2023/04/08 08:07:22;;;;;;;3.13;1.60;;;8.50;94.90;;;;;;4740680;30;20075;-82
2023/04/08 08:09:49;;;;;;;3.05;1.30;;;8.60;95.10;;;;;;4755454;30;20047;-82
2023/04/08 08:12:16;;;;;;;3.33;1.40;;;8.80;94.70;;;;;;4755334;30;20631;-82
2023/04/08 08:14:43;;;;;;;2.70;1.38;;;8.90;94.70;;;;;;4740089;30;20143;-81
2023/04/08 08:17:11;;;;;;;2.47;1.30;;;9.00;94.60;;;;;;4738880;30;20106;-82
2023/04/08 08:19:38;;;;;;;2.63;1.20;;;9.00;94.50;;;;;;4742766;30;20058;-82
2023/04/08 08:22:05;;;;;;;2.13;1.00;;;9.00;94.50;;;;;;4737533;30;20048;-82
2023/04/08 08:24:32;;;;;;;2.65;1.40;;;9.20;94.50;;;;;;4737396;30;20058;-82
2023/04/08 08:27:01;;;;;;;3.00;1.30;;;9.20;94.30;;;;;;4740366;30;20051;-82
2023/04/08 08:29:28;;;;;;;2.97;1.40;;;9.30;94.20;;;;;;4741122;30;20058;-82
2023/04/08 08:31:55;;;;;;;3.72;1.80;;;9.30;94.20;;;;;;4740375;30;20138;-82
2023/04/08 08:34:23;;;;;;;2.88;1.50;;;9.30;94.20;;;;;;4740105;30;20150;-83
2023/04/08 08:36:50;;;;;;;3.88;1.63;;;9.40;94.20;;;;;;4740172;30;20059;-82
2023/04/08 08:39:17;;;;;;;2.78;1.45;;;9.40;94.10;;;;;;4740143;30;20068;-83
2023/04/08 08:41:44;;;;;;;3.15;1.85;;;9.50;94.00;;;;;;4740218;30;20052;-83
2023/04/08 08:44:12;;;;;;;4.43;2.05;;;9.50;93.80;;;;;;4740292;30;20105;-83
2023/04/08 08:46:47;;;;;;;4.13;2.10;;;9.50;93.70;;;;;;4769622;30;20059;-84
2023/04/08 08:49:14;;;;;;;4.03;2.00;;;9.50;94.00;;;;;;4740101;30;20052;-84
2023/04/08 08:51:45;;;;;;;2.70;1.25;;;9.50;93.80;;;;;;4740089;30;20048;-82
2023/04/08 08:54:13;;;;;;;3.78;1.85;;;9.50;93.80;;;;;;4755095;30;20083;-82
2023/04/08 08:56:43;;;;;;;2.70;1.25;;;9.50;93.70;;;;;;4754545;30;20052;-83
2023/04/08 08:59:10;;;;;;;3.05;1.20;;;9.60;93.70;;;;;;4740150;30;20468;-83
2023/04/08 09:01:40;;;;;;;2.08;1.08;;;9.60;93.70;;;;;;4739924;30;20113;-83
2023/04/08 09:04:18;;;;;;;2.60;1.40;;;9.70;93.60;;;;;;4740491;30;20412;-91
2023/04/08 09:07:03;;;;;;;2.88;1.40;;;9.80;93.50;;;;;;4772058;30;20051;-91
2023/04/08 09:09:50;;;;;;;2.22;1.40;;;9.80;93.50;;;;;;4743534;30;20048;-91
2023/04/08 09:12:18;;;;;;;3.65;1.33;;;9.90;93.30;;;;;;4759619;30;20115;-90
2023/04/08 09:14:47;;;;;;;2.70;1.30;;;9.90;93.40;;;;;;4759178;30;20051;-89
2023/04/08 09:17:15;;;;;;;2.72;1.00;;;10.00;93.40;;;;;;4732734;30;20051;-91
2023/04/08 09:20:11;;;;;;;2.50;1.45;;;10.10;93.40;;;;;;4741067;30;20052;-91
2023/04/08 09:23:02;;;;;;;4.18;2.25;;;10.10;93.20;;;;;;4770661;30;20052;-91
2023/04/08 09:25:31;;;;;;;3.10;1.73;;;10.20;93.00;;;;;;4749052;30;20048;-90
2023/04/08 09:27:59;;;;;;;4.00;1.40;;;10.20;93.00;;;;;;4749692;30;20059;-91
2023/04/08 09:30:27;;;;;;;2.88;1.63;;;10.30;93.00;;;;;;4749796;30;20060;-91
2023/04/08 09:32:56;;;;;;;4.70;2.20;;;10.40;92.90;;;;;;4747616;30;20055;-91
2023/04/08 09:35:26;;;;;;;3.50;1.95;;;10.50;93.00;;;;;;4744325;30;20047;-91
2023/04/08 09:37:55;;;;;;;3.90;2.40;;;10.50;92.70;;;;;;4741065;30;20047;-92
2023/04/08 09:40:25;;;;;;;4.85;2.47;;;10.60;92.60;;;;;;4740835;30;20520;-92
2023/04/08 09:42:55;;;;;;;3.63;2.30;;;10.70;92.40;;;;;;4746658;30;20501;-91
2023/04/08 09:45:24;;;;;;;4.07;2.58;;;10.80;92.30;;;;;;4742440;30;20058;-91
2023/04/08 09:48:06;;;;;;;3.83;2.03;;;10.80;92.20;;;;;;4739307;30;20109;-91
2023/04/08 09:50:41;;;;;;;4.32;2.75;;;10.90;92.20;;;;;;4756516;30;20048;-91
2023/04/08 09:53:37;;;;;;;5.40;3.15;;;11.00;92.10;;;;;;4741427;30;20056;-91
2023/04/08 09:56:09;;;;;;;5.07;3.58;;;11.10;91.80;;;;;;4755666;30;20052;-92
2023/04/08 09:58:51;;;;;;;;;;;11.10;91.80;;;;;;4741341;30;20056;-92
2023/04/08 10:01:33;;;;;;;6.30;3.40;;;11.10;91.90;;;;;;4755786;30;20379;-91
2023/04/08 10:04:05;;;;;;;4.95;3.28;;;11.20;91.70;;;;;;4755556;30;20090;-93
2023/04/08 10:06:33;;;;;;;4.95;3.25;;;11.20;91.70;;;;;;4755405;30;20498;-93
2023/04/08 10:09:01;;;;;;;4.10;2.83;;;11.30;91.50;;;;;;4755311;30;20055;-93
2023/04/08 10:11:30;;;;;;;4.70;2.80;;;11.50;91.30;;;;;;4755294;30;20501;-93
2023/04/08 10:13:58;;;;;;;4.70;2.92;;;11.70;90.90;;;;;;4755757;30;20060;-93
2023/04/08 10:16:27;;;;;;;4.85;3.50;;;11.90;90.50;;;;;;4757182;30;20110;-93
2023/04/08 10:19:00;;;;;;;5.47;3.05;;;12.10;90.10;;;;;;4758991;30;20051;-93
2023/04/08 10:21:48;;;;;;;5.00;3.10;;;12.20;90.00;;;;;;4759142;30;20055;-94
2023/04/08 10:24:17;;;;;;;5.18;2.38;;;12.50;89.10;;;;;;4759082;30;20043;-94
2023/04/08 10:26:44;;;;;;;4.63;2.83;;;12.90;88.60;;;;;;4759283;30;20056;-93
2023/04/08 10:29:18;;;;;;;4.50;3.15;;;13.10;87.70;;;;;;4744464;30;20047;-93
2023/04/08 10:31:47;;;;;;;5.03;3.15;;;13.40;86.90;;;;;;4758535;30;20048;-93
2023/04/08 10:34:25;;;;;;;4.90;3.20;;;13.40;86.20;;;;;;4753125;30;20055;-93
2023/04/08 10:36:54;;;;;;;5.43;3.17;;;13.20;86.20;;;;;;4759577;30;20109;-95
2023/04/08 10:39:21;;;;;;;5.25;3.20;;;13.00;86.70;;;;;;4757514;30;20047;-88
2023/04/08 10:41:50;;;;;;;5.43;3.15;;;12.90;86.70;;;;;;4741394;30;20512;-89
2023/04/08 10:44:26;;;;;;;5.18;3.40;;;12.90;87.10;;;;;;4757183;30;20063;-90
2023/04/08 10:46:54;;;;;;;6.50;3.50;;;13.00;86.60;;;;;;4742598;30;20133;-88
2023/04/08 10:49:21;;;;;;;5.60;2.78;;;13.00;86.60;;;;;;4756943;30;20555;-85
2023/04/08 10:51:51;;;;;;;5.47;3.10;;;13.10;86.60;;;;;;4743536;30;20056;-85
2023/04/08 10:54:18;;;;;;;5.18;2.65;;;13.10;86.20;;;;;;4742560;30;20055;-84
2023/04/08 10:56:46;;;;;;;4.45;2.47;;;13.20;86.20;;;;;;4741224;30;20048;-87
2023/04/08 10:59:15;;;;;;;5.70;2.63;;;13.40;86.10;;;;;;4756927;30;20502;-87
2023/04/08 11:01:44;;;;;;;4.72;2.53;;;13.50;85.70;;;;;;4742870;30;20108;-89
2023/04/08 11:04:17;;;;;;;3.85;2.20;;;13.60;85.30;;;;;;4742885;30;20139;-89
2023/04/08 11:06:46;;;;;;;4.88;2.33;;;13.70;84.70;;;;;;4757326;30;20127;-90
2023/04/08 11:09:14;;;;;;;4.65;2.65;;;13.70;84.40;;;;;;4756807;30;20060;-88
2023/04/08 11:11:45;;;;;;;4.07;2.25;;;13.70;84.20;;;;;;4742930;30;20100;-89
2023/04/08 11:14:12;;;;;;;4.72;2.55;;;13.80;84.50;;;;;;4771754;30;20048;-90
2023/04/08 11:16:40;;;;;;;3.85;2.22;;;13.90;83.60;;;;;;4742718;30;20051;-88
2023/04/08 11:19:07;;;;;;;4.90;2.47;;;13.90;83.50;;;;;;4757115;30;20048;-87
2023/04/08 11:21:36;;;;;;;4.68;2.75;;;13.90;83.10;;;;;;4742109;30;20047;-87
2023/04/08 11:24:10;;;;;;;6.10;2.90;;;13.80;82.90;;;;;;4756737;30;20498;-87
2023/04/08 11:26:39;;;;;;;4.57;2.75;;;13.90;82.40;;;;;;4756288;30;20063;-86
2023/04/08 11:29:12;;;;;;;3.95;2.30;;;13.90;82.40;;;;;;4770535;30;20047;-89
2023/04/08 11:31:41;;;;;;;4.07;2.40;;;13.90;82.10;;;;;;4757450;30;20079;-89
2023/04/08 11:34:11;;;;;;;4.72;2.40;;;14.00;82.00;;;;;;4746784;30;20055;-91
2023/04/08 11:36:42;;;;;;;3.58;1.95;;;14.10;81.60;;;;;;4759517;30;20139;-87
2023/04/08 11:39:11;;;;;;;4.07;2.63;;;14.20;80.80;;;;;;4757366;30;20059;-89
2023/04/08 11:41:39;;;;;;;4.07;2.30;;;14.30;80.60;;;;;;4742690;30;20060;-89
2023/04/08 11:44:07;;;;;;;4.57;2.35;;;14.30;80.30;;;;;;4756558;30;20108;-89
2023/04/08 11:46:35;;;;;;;5.07;2.90;;;14.30;80.40;;;;;;4756707;30;20051;-88
2023/04/08 11:49:05;;;;;;;4.22;2.55;;;14.20;80.20;;;;;;4741680;30;20059;-88
2023/04/08 11:51:53;;;;;;;4.82;2.55;;;14.10;80.40;;;;;;4756495;30;20130;-89
2023/04/08 11:54:28;;;;;;;4.13;2.65;;;14.10;80.20;;;;;;4744985;30;20178;-89
2023/04/08 11:56:57;;;;;;;3.78;2.55;;;14.10;80.10;;;;;;4741397;30;20043;-88
2023/04/08 11:59:31;;;;;;;4.10;1.90;;;14.00;80.30;;;;;;4757427;30;20062;-89
2023/04/08 12:02:02;;;;;;;4.07;2.42;;;14.00;80.40;;;;;;4756563;30;20056;-88
2023/04/08 12:04:29;;;;;;;5.38;3.00;;;14.00;79.10;;;;;;4756583;30;20043;-89
2023/04/08 12:06:59;;;;;;;3.67;2.33;;;14.00;79.20;;;;;;4753001;30;20052;-88
2023/04/08 12:09:27;;;;;;;4.95;2.40;;;14.00;79.10;;;;;;4741629;30;20501;-89
2023/04/08 12:11:56;;;;;;;3.15;1.65;;;14.00;78.80;;;;;;4741515;30;20113;-90
2023/04/08 12:14:31;;;;;;;4.00;2.55;;;14.10;78.60;;;;;;4742905;30;20391;-93
2023/04/08 12:16:58;;;;;;;3.80;2.22;;;14.20;78.50;;;;;;4755594;30;20545;-89
2023/04/08 12:19:32;;;;;;;6.18;3.53;;;14.20;78.00;;;;;;4756092;30;20075;-88
2023/04/08 12:22:04;;;;;;;4.68;2.97;;;14.10;77.00;;;;;;4755803;30;20136;-84
2023/04/08 12:24:31;;;;;;;4.40;2.60;;;14.10;77.40;;;;;;4755098;30;20068;-84
2023/04/08 12:26:58;;;;;;;5.10;3.20;;;14.00;77.50;;;;;;4737538;30;20048;-88
2023/04/08 12:29:29;;;;;;;3.47;2.38;;;13.90;77.30;;;;;;4741885;30;20078;-89
2023/04/08 12:31:58;;;;;;;3.20;1.90;;;13.80;77.80;;;;;;4755664;30;20498;-88
2023/04/08 12:34:25;;;;;;;3.05;1.50;;;13.80;77.90;;;;;;4755131;30;20047;-86
2023/04/08 12:36:54;;;;;;;4.15;2.10;;;14.00;77.90;;;;;;4741031;30;20051;-92
2023/04/08 12:39:21;;;;;;;3.30;2.20;;;14.30;77.40;;;;;;4741300;30;20058;-90
2023/04/08 12:41:50;;;;;;;3.83;2.28;;;14.40;76.40;;;;;;4770584;30;20043;-89
2023/04/08 12:44:18;;;;;;;3.70;2.00;;;14.50;76.40;;;;;;4754831;30;20528;-85
2023/04/08 12:46:45;;;;;;;3.88;2.50;;;14.70;76.20;;;;;;4769749;30;20146;-84
2023/04/08 12:49:12;;;;;;;2.70;1.90;;;14.80;75.90;;;;;;4755369;30;20523;-86
2023/04/08 12:51:39;;;;;;;3.63;2.42;;;14.90;75.60;;;;;;4755101;30;20409;-86
2023/04/08 12:54:07;;;;;;;5.22;2.75;;;14.90;75.40;;;;;;4755426;30;20059;-91
2023/04/08 12:56:34;;;;;;;4.30;2.45;;;14.90;75.20;;;;;;4756081;30;20059;-90
2023/04/08 12:59:01;;;;;;;4.82;2.53;;;14.80;75.10;;;;;;4740909;30;20146;-88
2023/04/08 13:01:29;;;;;;;4.40;2.63;;;14.80;75.30;;;;;;4724905;30;20044;-84
2023/04/08 13:03:57;;;;;;;3.70;2.30;;;14.80;75.40;;;;;;4745052;30;20109;-85
2023/04/08 13:06:25;;;;;;;3.55;2.05;;;14.80;75.30;;;;;;4727740;30;20520;-90